sensor_id;sensor_type;location;lat;lon;timestamp;P1;durP1;ratioP1;P2;durP2;ratioP2
71387;SDS011;59201;59.902;10.520;2023-02-22T00:00:37;8.23;;;2.47;;
71387;SDS011;59201;59.902;10.520;2023-02-22T00:03:13;9.93;;;2.40;;
71387;SDS011;59201;59.902;10.520;2023-02-22T00:05:40;6.57;;;2.03;;
71387;SDS011;59201;59.902;10.520;2023-02-22T00:08:11;7.05;;;2.20;;
71387;SDS011;59201;59.902;10.520;2023-02-22T00:10:37;7.88;;;2.20;;
71387;SDS011;59201;59.902;10.520;2023-02-22T00:13:04;7.88;;;2.60;;
71387;SDS011;59201;59.902;10.520;2023-02-22T00:15:31;9.33;;;2.80;;
71387;SDS011;59201;59.902;10.520;2023-02-22T00:17:57;8.38;;;2.95;;
71387;SDS011;59201;59.902;10.520;2023-02-22T00:20:23;7.50;;;2.80;;
71387;SDS011;59201;59.902;10.520;2023-02-22T00:22:50;7.38;;;2.33;;
71387;SDS011;59201;59.902;10.520;2023-02-22T00:25:18;6.95;;;2.35;;
71387;SDS011;59201;59.902;10.520;2023-02-22T00:27:45;7.93;;;2.60;;
71387;SDS011;59201;59.902;10.520;2023-02-22T00:30:24;9.27;;;2.67;;
71387;SDS011;59201;59.902;10.520;2023-02-22T00:32:51;7.47;;;2.15;;
71387;SDS011;59201;59.902;10.520;2023-02-22T00:35:17;6.55;;;2.00;;
71387;SDS011;59201;59.902;10.520;2023-02-22T00:37:48;7.43;;;1.90;;
71387;SDS011;59201;59.902;10.520;2023-02-22T00:40:16;7.90;;;2.30;;
71387;SDS011;59201;59.902;10.520;2023-02-22T00:42:43;7.07;;;2.35;;
71387;SDS011;59201;59.902;10.520;2023-02-22T00:45:10;6.97;;;2.03;;
71387;SDS011;59201;59.902;10.520;2023-02-22T00:47:36;7.78;;;1.98;;
71387;SDS011;59201;59.902;10.520;2023-02-22T00:50:03;7.78;;;2.50;;
71387;SDS011;59201;59.902;10.520;2023-02-22T00:52:29;6.47;;;1.83;;
71387;SDS011;59201;59.902;10.520;2023-02-22T00:54:56;7.15;;;2.20;;
71387;SDS011;59201;59.902;10.520;2023-02-22T00:57:22;5.55;;;1.80;;
71387;SDS011;59201;59.902;10.520;2023-02-22T00:59:49;6.30;;;1.77;;
71387;SDS011;59201;59.902;10.520;2023-02-22T01:02:15;6.57;;;1.85;;
71387;SDS011;59201;59.902;10.520;2023-02-22T01:04:42;6.77;;;1.63;;
71387;SDS011;59201;59.902;10.520;2023-02-22T01:07:08;5.43;;;1.77;;
71387;SDS011;59201;59.902;10.520;2023-02-22T01:09:34;5.13;;;1.80;;
71387;SDS011;59201;59.902;10.520;2023-02-22T01:12:00;5.93;;;1.60;;
71387;SDS011;59201;59.902;10.520;2023-02-22T01:14:26;6.38;;;1.70;;
71387;SDS011;59201;59.902;10.520;2023-02-22T01:16:53;6.23;;;1.90;;
71387;SDS011;59201;59.902;10.520;2023-02-22T01:19:20;7.05;;;1.90;;
71387;SDS011;59201;59.902;10.520;2023-02-22T01:21:47;6.35;;;1.90;;
71387;SDS011;59201;59.902;10.520;2023-02-22T01:24:13;5.15;;;1.70;;
71387;SDS011;59201;59.902;10.520;2023-02-22T01:26:43;5.40;;;1.63;;
71387;SDS011;59201;59.902;10.520;2023-02-22T01:29:13;5.93;;;1.70;;
71387;SDS011;59201;59.902;10.520;2023-02-22T01:31:41;8.02;;;1.60;;
71387;SDS011;59201;59.902;10.520;2023-02-22T01:34:08;6.40;;;1.73;;
71387;SDS011;59201;59.902;10.520;2023-02-22T01:36:35;7.22;;;1.90;;
71387;SDS011;59201;59.902;10.520;2023-02-22T01:39:01;6.00;;;1.60;;
71387;SDS011;59201;59.902;10.520;2023-02-22T01:41:27;5.73;;;1.80;;
71387;SDS011;59201;59.902;10.520;2023-02-22T01:43:53;6.25;;;1.90;;
71387;SDS011;59201;59.902;10.520;2023-02-22T01:49:06;5.07;;;1.67;;
71387;SDS011;59201;59.902;10.520;2023-02-22T01:51:38;5.80;;;1.77;;
71387;SDS011;59201;59.902;10.520;2023-02-22T01:54:06;7.63;;;1.70;;
71387;SDS011;59201;59.902;10.520;2023-02-22T01:56:35;5.10;;;1.52;;
71387;SDS011;59201;59.902;10.520;2023-02-22T01:59:04;4.85;;;1.58;;
71387;SDS011;59201;59.902;10.520;2023-02-22T02:01:32;5.47;;;1.55;;
71387;SDS011;59201;59.902;10.520;2023-02-22T02:04:00;5.47;;;1.65;;
71387;SDS011;59201;59.902;10.520;2023-02-22T02:06:30;4.40;;;1.30;;
71387;SDS011;59201;59.902;10.520;2023-02-22T02:08:58;6.10;;;1.70;;
71387;SDS011;59201;59.902;10.520;2023-02-22T02:11:27;6.10;;;1.38;;
71387;SDS011;59201;59.902;10.520;2023-02-22T02:13:54;5.53;;;1.48;;
71387;SDS011;59201;59.902;10.520;2023-02-22T02:16:26;5.68;;;1.58;;
71387;SDS011;59201;59.902;10.520;2023-02-22T02:18:54;4.50;;;1.10;;
71387;SDS011;59201;59.902;10.520;2023-02-22T02:34:40;4.35;;;1.42;;
71387;SDS011;59201;59.902;10.520;2023-02-22T02:37:13;4.88;;;1.30;;
71387;SDS011;59201;59.902;10.520;2023-02-22T02:42:10;4.95;;;1.45;;
71387;SDS011;59201;59.902;10.520;2023-02-22T02:47:11;4.35;;;1.20;;
71387;SDS011;59201;59.902;10.520;2023-02-22T02:49:40;4.68;;;1.40;;
71387;SDS011;59201;59.902;10.520;2023-02-22T02:52:09;4.60;;;1.15;;
71387;SDS011;59201;59.902;10.520;2023-02-22T02:54:36;4.90;;;1.38;;
71387;SDS011;59201;59.902;10.520;2023-02-22T02:57:03;4.40;;;1.20;;
71387;SDS011;59201;59.902;10.520;2023-02-22T02:59:34;5.05;;;1.40;;
71387;SDS011;59201;59.902;10.520;2023-02-22T03:07:27;4.28;;;1.20;;
71387;SDS011;59201;59.902;10.520;2023-02-22T03:20:47;4.72;;;1.30;;
71387;SDS011;59201;59.902;10.520;2023-02-22T03:25:49;3.83;;;1.10;;
71387;SDS011;59201;59.902;10.520;2023-02-22T03:28:17;5.05;;;1.20;;
71387;SDS011;59201;59.902;10.520;2023-02-22T03:30:46;4.75;;;1.20;;
71387;SDS011;59201;59.902;10.520;2023-02-22T03:33:17;4.40;;;1.23;;
71387;SDS011;59201;59.902;10.520;2023-02-22T03:35:53;4.40;;;1.30;;
71387;SDS011;59201;59.902;10.520;2023-02-22T03:38:20;4.28;;;1.00;;
71387;SDS011;59201;59.902;10.520;2023-02-22T03:40:48;4.40;;;1.17;;
71387;SDS011;59201;59.902;10.520;2023-02-22T03:43:20;4.70;;;1.10;;
71387;SDS011;59201;59.902;10.520;2023-02-22T03:45:49;4.40;;;1.20;;
71387;SDS011;59201;59.902;10.520;2023-02-22T03:48:18;4.07;;;1.13;;
71387;SDS011;59201;59.902;10.520;2023-02-22T03:50:46;3.58;;;0.93;;
71387;SDS011;59201;59.902;10.520;2023-02-22T03:53:13;4.85;;;1.38;;
71387;SDS011;59201;59.902;10.520;2023-02-22T03:55:39;4.10;;;1.13;;
71387;SDS011;59201;59.902;10.520;2023-02-22T03:58:08;4.55;;;1.20;;
71387;SDS011;59201;59.902;10.520;2023-02-22T04:00:35;4.77;;;1.30;;
71387;SDS011;59201;59.902;10.520;2023-02-22T04:03:02;4.75;;;1.38;;
71387;SDS011;59201;59.902;10.520;2023-02-22T04:05:28;4.47;;;1.20;;
71387;SDS011;59201;59.902;10.520;2023-02-22T04:07:55;4.10;;;1.20;;
71387;SDS011;59201;59.902;10.520;2023-02-22T04:10:21;3.95;;;1.00;;
71387;SDS011;59201;59.902;10.520;2023-02-22T04:12:48;4.83;;;1.30;;
71387;SDS011;59201;59.902;10.520;2023-02-22T04:15:16;4.32;;;1.10;;
71387;SDS011;59201;59.902;10.520;2023-02-22T04:17:42;4.75;;;1.20;;
71387;SDS011;59201;59.902;10.520;2023-02-22T04:20:08;5.85;;;1.48;;
71387;SDS011;59201;59.902;10.520;2023-02-22T04:22:37;4.32;;;1.20;;
71387;SDS011;59201;59.902;10.520;2023-02-22T04:25:03;4.87;;;1.20;;
71387;SDS011;59201;59.902;10.520;2023-02-22T04:27:29;4.70;;;1.30;;
71387;SDS011;59201;59.902;10.520;2023-02-22T04:29:55;4.68;;;1.27;;
71387;SDS011;59201;59.902;10.520;2023-02-22T04:32:21;5.70;;;1.25;;
71387;SDS011;59201;59.902;10.520;2023-02-22T04:34:48;4.90;;;1.30;;
71387;SDS011;59201;59.902;10.520;2023-02-22T04:37:14;4.17;;;1.10;;
71387;SDS011;59201;59.902;10.520;2023-02-22T04:39:40;3.95;;;1.20;;
71387;SDS011;59201;59.902;10.520;2023-02-22T04:42:06;3.78;;;1.08;;
71387;SDS011;59201;59.902;10.520;2023-02-22T04:44:32;5.32;;;1.10;;
71387;SDS011;59201;59.902;10.520;2023-02-22T04:46:58;7.07;;;1.30;;
71387;SDS011;59201;59.902;10.520;2023-02-22T04:49:24;4.60;;;1.30;;
71387;SDS011;59201;59.902;10.520;2023-02-22T04:51:51;4.32;;;1.27;;
71387;SDS011;59201;59.902;10.520;2023-02-22T04:54:17;3.67;;;1.20;;
71387;SDS011;59201;59.902;10.520;2023-02-22T04:56:43;4.78;;;1.20;;
71387;SDS011;59201;59.902;10.520;2023-02-22T04:59:10;3.88;;;1.00;;
71387;SDS011;59201;59.902;10.520;2023-02-22T05:01:36;4.43;;;1.17;;
71387;SDS011;59201;59.902;10.520;2023-02-22T05:04:03;4.18;;;1.10;;
71387;SDS011;59201;59.902;10.520;2023-02-22T05:06:29;4.72;;;1.27;;
71387;SDS011;59201;59.902;10.520;2023-02-22T05:08:55;5.50;;;1.27;;
71387;SDS011;59201;59.902;10.520;2023-02-22T05:11:21;4.88;;;1.27;;
71387;SDS011;59201;59.902;10.520;2023-02-22T05:13:48;4.53;;;1.20;;
71387;SDS011;59201;59.902;10.520;2023-02-22T05:16:14;5.53;;;1.20;;
71387;SDS011;59201;59.902;10.520;2023-02-22T05:18:40;4.47;;;1.27;;
71387;SDS011;59201;59.902;10.520;2023-02-22T05:21:07;4.13;;;1.20;;
71387;SDS011;59201;59.902;10.520;2023-02-22T05:23:33;4.45;;;1.30;;
71387;SDS011;59201;59.902;10.520;2023-02-22T05:25:59;5.30;;;1.50;;
71387;SDS011;59201;59.902;10.520;2023-02-22T05:28:25;5.47;;;1.90;;
71387;SDS011;59201;59.902;10.520;2023-02-22T05:30:52;4.63;;;1.48;;
71387;SDS011;59201;59.902;10.520;2023-02-22T05:33:18;5.10;;;1.63;;
71387;SDS011;59201;59.902;10.520;2023-02-22T05:35:44;4.80;;;1.30;;
71387;SDS011;59201;59.902;10.520;2023-02-22T05:38:13;4.87;;;1.47;;
71387;SDS011;59201;59.902;10.520;2023-02-22T05:40:40;6.22;;;1.80;;
71387;SDS011;59201;59.902;10.520;2023-02-22T05:43:07;5.15;;;1.70;;
71387;SDS011;59201;59.902;10.520;2023-02-22T05:45:33;4.97;;;1.40;;
71387;SDS011;59201;59.902;10.520;2023-02-22T05:48:00;6.57;;;1.60;;
71387;SDS011;59201;59.902;10.520;2023-02-22T05:50:26;4.10;;;1.40;;
71387;SDS011;59201;59.902;10.520;2023-02-22T05:52:52;4.85;;;1.30;;
71387;SDS011;59201;59.902;10.520;2023-02-22T05:55:19;6.90;;;1.30;;
71387;SDS011;59201;59.902;10.520;2023-02-22T05:57:45;4.28;;;1.20;;
71387;SDS011;59201;59.902;10.520;2023-02-22T06:00:16;4.88;;;1.20;;
71387;SDS011;59201;59.902;10.520;2023-02-22T06:02:43;5.00;;;1.20;;
71387;SDS011;59201;59.902;10.520;2023-02-22T06:05:09;4.78;;;1.30;;
71387;SDS011;59201;59.902;10.520;2023-02-22T06:07:35;6.30;;;1.33;;
71387;SDS011;59201;59.902;10.520;2023-02-22T06:10:01;3.60;;;1.00;;
71387;SDS011;59201;59.902;10.520;2023-02-22T06:12:27;4.43;;;1.38;;
71387;SDS011;59201;59.902;10.520;2023-02-22T06:14:53;4.70;;;1.43;;
71387;SDS011;59201;59.902;10.520;2023-02-22T06:17:19;4.30;;;1.20;;
71387;SDS011;59201;59.902;10.520;2023-02-22T06:19:45;5.65;;;1.60;;
71387;SDS011;59201;59.902;10.520;2023-02-22T06:22:15;4.38;;;1.20;;
71387;SDS011;59201;59.902;10.520;2023-02-22T06:24:42;4.57;;;1.20;;
71387;SDS011;59201;59.902;10.520;2023-02-22T06:27:08;5.87;;;1.53;;
71387;SDS011;59201;59.902;10.520;2023-02-22T06:29:34;6.65;;;1.40;;
71387;SDS011;59201;59.902;10.520;2023-02-22T06:32:00;4.45;;;1.35;;
71387;SDS011;59201;59.902;10.520;2023-02-22T06:34:26;5.97;;;1.45;;
71387;SDS011;59201;59.902;10.520;2023-02-22T06:36:52;5.47;;;1.38;;
71387;SDS011;59201;59.902;10.520;2023-02-22T06:39:18;4.63;;;1.30;;
71387;SDS011;59201;59.902;10.520;2023-02-22T06:41:45;5.13;;;1.40;;
71387;SDS011;59201;59.902;10.520;2023-02-22T06:44:12;5.38;;;1.70;;
71387;SDS011;59201;59.902;10.520;2023-02-22T06:46:39;5.22;;;1.50;;
71387;SDS011;59201;59.902;10.520;2023-02-22T06:49:05;4.70;;;1.42;;
71387;SDS011;59201;59.902;10.520;2023-02-22T06:51:34;4.80;;;1.33;;
71387;SDS011;59201;59.902;10.520;2023-02-22T06:54:01;7.35;;;1.80;;
71387;SDS011;59201;59.902;10.520;2023-02-22T06:56:28;5.20;;;1.40;;
71387;SDS011;59201;59.902;10.520;2023-02-22T06:58:54;6.80;;;1.50;;
71387;SDS011;59201;59.902;10.520;2023-02-22T07:01:20;5.28;;;1.80;;
71387;SDS011;59201;59.902;10.520;2023-02-22T07:03:49;4.60;;;1.30;;
71387;SDS011;59201;59.902;10.520;2023-02-22T07:06:16;5.43;;;1.40;;
71387;SDS011;59201;59.902;10.520;2023-02-22T07:08:42;5.90;;;1.40;;
71387;SDS011;59201;59.902;10.520;2023-02-22T07:11:08;4.60;;;1.50;;
71387;SDS011;59201;59.902;10.520;2023-02-22T07:13:34;4.57;;;1.20;;
71387;SDS011;59201;59.902;10.520;2023-02-22T07:16:00;5.63;;;1.20;;
71387;SDS011;59201;59.902;10.520;2023-02-22T07:18:26;4.95;;;1.33;;
71387;SDS011;59201;59.902;10.520;2023-02-22T07:20:52;4.70;;;1.30;;
71387;SDS011;59201;59.902;10.520;2023-02-22T07:23:19;5.25;;;1.40;;
71387;SDS011;59201;59.902;10.520;2023-02-22T07:25:45;4.93;;;1.50;;
71387;SDS011;59201;59.902;10.520;2023-02-22T07:28:11;4.50;;;1.40;;
71387;SDS011;59201;59.902;10.520;2023-02-22T07:30:37;4.88;;;1.25;;
71387;SDS011;59201;59.902;10.520;2023-02-22T07:33:05;6.20;;;1.40;;
71387;SDS011;59201;59.902;10.520;2023-02-22T07:35:38;4.82;;;1.35;;
71387;SDS011;59201;59.902;10.520;2023-02-22T07:38:08;5.32;;;1.40;;
71387;SDS011;59201;59.902;10.520;2023-02-22T07:40:35;4.23;;;1.30;;
71387;SDS011;59201;59.902;10.520;2023-02-22T07:45:42;4.75;;;1.20;;
71387;SDS011;59201;59.902;10.520;2023-02-22T07:48:09;5.35;;;1.48;;
71387;SDS011;59201;59.902;10.520;2023-02-22T07:50:36;4.38;;;1.15;;
71387;SDS011;59201;59.902;10.520;2023-02-22T07:53:04;5.43;;;1.37;;
71387;SDS011;59201;59.902;10.520;2023-02-22T07:55:30;5.15;;;1.58;;
71387;SDS011;59201;59.902;10.520;2023-02-22T07:57:58;4.45;;;1.42;;
71387;SDS011;59201;59.902;10.520;2023-02-22T08:00:28;6.93;;;1.35;;
71387;SDS011;59201;59.902;10.520;2023-02-22T08:02:54;5.00;;;1.40;;
71387;SDS011;59201;59.902;10.520;2023-02-22T08:05:22;2.57;;;0.80;;
71387;SDS011;59201;59.902;10.520;2023-02-22T08:07:48;4.63;;;1.38;;
71387;SDS011;59201;59.902;10.520;2023-02-22T08:10:15;4.22;;;1.30;;
71387;SDS011;59201;59.902;10.520;2023-02-22T08:12:41;5.15;;;1.42;;
71387;SDS011;59201;59.902;10.520;2023-02-22T08:15:08;7.32;;;1.65;;
71387;SDS011;59201;59.902;10.520;2023-02-22T08:17:39;5.30;;;1.27;;
71387;SDS011;59201;59.902;10.520;2023-02-22T08:20:05;4.50;;;1.33;;
71387;SDS011;59201;59.902;10.520;2023-02-22T08:22:31;5.07;;;1.48;;
71387;SDS011;59201;59.902;10.520;2023-02-22T08:24:58;5.85;;;1.60;;
71387;SDS011;59201;59.902;10.520;2023-02-22T08:27:24;5.22;;;1.55;;
71387;SDS011;59201;59.902;10.520;2023-02-22T08:29:51;6.00;;;1.47;;
71387;SDS011;59201;59.902;10.520;2023-02-22T08:32:17;6.35;;;1.58;;
71387;SDS011;59201;59.902;10.520;2023-02-22T08:34:44;4.80;;;1.10;;
71387;SDS011;59201;59.902;10.520;2023-02-22T08:37:10;5.40;;;1.17;;
71387;SDS011;59201;59.902;10.520;2023-02-22T08:39:36;4.85;;;1.38;;
71387;SDS011;59201;59.902;10.520;2023-02-22T08:42:02;3.63;;;0.97;;
71387;SDS011;59201;59.902;10.520;2023-02-22T08:44:28;4.28;;;1.25;;
71387;SDS011;59201;59.902;10.520;2023-02-22T08:46:54;4.93;;;1.30;;
71387;SDS011;59201;59.902;10.520;2023-02-22T08:49:20;5.90;;;1.30;;
71387;SDS011;59201;59.902;10.520;2023-02-22T08:51:47;3.35;;;0.95;;
71387;SDS011;59201;59.902;10.520;2023-02-22T08:54:13;5.00;;;1.30;;
71387;SDS011;59201;59.902;10.520;2023-02-22T08:56:39;4.85;;;1.35;;
71387;SDS011;59201;59.902;10.520;2023-02-22T08:59:05;6.45;;;1.83;;
71387;SDS011;59201;59.902;10.520;2023-02-22T09:01:31;3.95;;;1.17;;
71387;SDS011;59201;59.902;10.520;2023-02-22T09:03:58;5.32;;;1.50;;
71387;SDS011;59201;59.902;10.520;2023-02-22T09:06:25;4.77;;;1.20;;
71387;SDS011;59201;59.902;10.520;2023-02-22T09:08:51;4.28;;;1.05;;
71387;SDS011;59201;59.902;10.520;2023-02-22T09:11:17;7.93;;;1.38;;
71387;SDS011;59201;59.902;10.520;2023-02-22T09:13:43;5.78;;;1.58;;
71387;SDS011;59201;59.902;10.520;2023-02-22T09:16:09;5.03;;;1.50;;
71387;SDS011;59201;59.902;10.520;2023-02-22T09:18:35;5.27;;;1.67;;
71387;SDS011;59201;59.902;10.520;2023-02-22T09:21:02;4.55;;;1.40;;
71387;SDS011;59201;59.902;10.520;2023-02-22T09:23:28;4.32;;;1.30;;
71387;SDS011;59201;59.902;10.520;2023-02-22T09:25:54;4.72;;;1.20;;
71387;SDS011;59201;59.902;10.520;2023-02-22T09:28:20;4.47;;;1.40;;
71387;SDS011;59201;59.902;10.520;2023-02-22T09:30:47;3.97;;;1.07;;
71387;SDS011;59201;59.902;10.520;2023-02-22T09:33:16;4.20;;;1.30;;
71387;SDS011;59201;59.902;10.520;2023-02-22T09:35:43;6.20;;;1.30;;
71387;SDS011;59201;59.902;10.520;2023-02-22T09:38:15;5.25;;;1.45;;
71387;SDS011;59201;59.902;10.520;2023-02-22T09:40:42;4.93;;;1.40;;
71387;SDS011;59201;59.902;10.520;2023-02-22T09:46:04;4.97;;;1.25;;
71387;SDS011;59201;59.902;10.520;2023-02-22T09:48:36;4.25;;;1.10;;
71387;SDS011;59201;59.902;10.520;2023-02-22T09:51:08;5.32;;;1.30;;
71387;SDS011;59201;59.902;10.520;2023-02-22T09:53:39;4.25;;;1.20;;
71387;SDS011;59201;59.902;10.520;2023-02-22T09:56:10;5.07;;;1.40;;
71387;SDS011;59201;59.902;10.520;2023-02-22T09:58:37;4.63;;;1.27;;
71387;SDS011;59201;59.902;10.520;2023-02-22T10:03:35;5.80;;;1.50;;
71387;SDS011;59201;59.902;10.520;2023-02-22T10:06:09;5.00;;;1.55;;
71387;SDS011;59201;59.902;10.520;2023-02-22T10:08:37;4.37;;;1.30;;
71387;SDS011;59201;59.902;10.520;2023-02-22T10:13:54;5.38;;;1.35;;
71387;SDS011;59201;59.902;10.520;2023-02-22T10:26:31;5.70;;;1.52;;
71387;SDS011;59201;59.902;10.520;2023-02-22T10:31:32;4.60;;;1.30;;
71387;SDS011;59201;59.902;10.520;2023-02-22T10:34:00;4.77;;;1.30;;
71387;SDS011;59201;59.902;10.520;2023-02-22T10:36:27;5.05;;;1.55;;
71387;SDS011;59201;59.902;10.520;2023-02-22T10:41:22;4.95;;;1.30;;
71387;SDS011;59201;59.902;10.520;2023-02-22T10:43:51;5.05;;;1.33;;
71387;SDS011;59201;59.902;10.520;2023-02-22T10:46:17;4.53;;;1.07;;
71387;SDS011;59201;59.902;10.520;2023-02-22T10:48:46;4.95;;;1.38;;
71387;SDS011;59201;59.902;10.520;2023-02-22T10:51:13;4.50;;;1.23;;
71387;SDS011;59201;59.902;10.520;2023-02-22T10:53:39;6.18;;;1.77;;
71387;SDS011;59201;59.902;10.520;2023-02-22T10:56:12;5.10;;;1.40;;
71387;SDS011;59201;59.902;10.520;2023-02-22T10:58:40;4.67;;;1.10;;
71387;SDS011;59201;59.902;10.520;2023-02-22T11:04:04;4.88;;;1.30;;
71387;SDS011;59201;59.902;10.520;2023-02-22T11:06:33;3.85;;;1.13;;
71387;SDS011;59201;59.902;10.520;2023-02-22T11:09:03;6.07;;;1.30;;
71387;SDS011;59201;59.902;10.520;2023-02-22T11:11:29;4.53;;;1.07;;
71387;SDS011;59201;59.902;10.520;2023-02-22T11:13:56;5.80;;;1.40;;
71387;SDS011;59201;59.902;10.520;2023-02-22T11:18:49;5.13;;;1.20;;
71387;SDS011;59201;59.902;10.520;2023-02-22T11:21:20;4.72;;;1.35;;
71387;SDS011;59201;59.902;10.520;2023-02-22T11:23:46;4.53;;;1.00;;
71387;SDS011;59201;59.902;10.520;2023-02-22T11:26:15;3.53;;;1.00;;
71387;SDS011;59201;59.902;10.520;2023-02-22T11:28:45;3.60;;;1.10;;
71387;SDS011;59201;59.902;10.520;2023-02-22T11:31:22;4.13;;;1.05;;
71387;SDS011;59201;59.902;10.520;2023-02-22T11:33:58;4.07;;;1.13;;
71387;SDS011;59201;59.902;10.520;2023-02-22T11:38:55;5.40;;;1.23;;
71387;SDS011;59201;59.902;10.520;2023-02-22T11:41:33;4.63;;;1.38;;
71387;SDS011;59201;59.902;10.520;2023-02-22T11:44:12;4.40;;;1.20;;
71387;SDS011;59201;59.902;10.520;2023-02-22T11:46:39;2.95;;;0.93;;
71387;SDS011;59201;59.902;10.520;2023-02-22T11:49:10;1.77;;;0.60;;
71387;SDS011;59201;59.902;10.520;2023-02-22T11:54:22;3.42;;;1.02;;
71387;SDS011;59201;59.902;10.520;2023-02-22T12:07:25;3.60;;;1.15;;
71387;SDS011;59201;59.902;10.520;2023-02-22T12:13:07;3.38;;;1.00;;
71387;SDS011;59201;59.902;10.520;2023-02-22T12:15:44;4.23;;;1.20;;
71387;SDS011;59201;59.902;10.520;2023-02-22T12:20:46;4.05;;;1.10;;
71387;SDS011;59201;59.902;10.520;2023-02-22T12:25:51;4.07;;;1.30;;
71387;SDS011;59201;59.902;10.520;2023-02-22T12:28:24;3.07;;;0.80;;
71387;SDS011;59201;59.902;10.520;2023-02-22T12:30:55;3.55;;;1.00;;
71387;SDS011;59201;59.902;10.520;2023-02-22T12:33:25;3.03;;;0.98;;
71387;SDS011;59201;59.902;10.520;2023-02-22T12:35:54;3.58;;;0.90;;
71387;SDS011;59201;59.902;10.520;2023-02-22T12:48:45;4.15;;;1.10;;
71387;SDS011;59201;59.902;10.520;2023-02-22T12:53:55;5.17;;;1.20;;
71387;SDS011;59201;59.902;10.520;2023-02-22T12:56:35;5.32;;;1.38;;
71387;SDS011;59201;59.902;10.520;2023-02-22T12:59:04;4.50;;;1.17;;
71387;SDS011;59201;59.902;10.520;2023-02-22T13:01:40;3.17;;;0.85;;
71387;SDS011;59201;59.902;10.520;2023-02-22T13:04:08;3.95;;;1.13;;
71387;SDS011;59201;59.902;10.520;2023-02-22T13:06:44;4.07;;;1.23;;
71387;SDS011;59201;59.902;10.520;2023-02-22T13:20:00;5.73;;;1.20;;
71387;SDS011;59201;59.902;10.520;2023-02-22T13:27:25;4.68;;;1.20;;
71387;SDS011;59201;59.902;10.520;2023-02-22T13:29:59;5.57;;;1.40;;
71387;SDS011;59201;59.902;10.520;2023-02-22T13:32:32;2.97;;;0.97;;
71387;SDS011;59201;59.902;10.520;2023-02-22T13:37:51;2.88;;;0.85;;
71387;SDS011;59201;59.902;10.520;2023-02-22T13:52:56;4.78;;;1.00;;
71387;SDS011;59201;59.902;10.520;2023-02-22T13:55:24;6.35;;;1.20;;
71387;SDS011;59201;59.902;10.520;2023-02-22T13:57:58;4.40;;;1.10;;
71387;SDS011;59201;59.902;10.520;2023-02-22T14:03:05;5.22;;;1.40;;
71387;SDS011;59201;59.902;10.520;2023-02-22T14:08:06;3.25;;;0.95;;
71387;SDS011;59201;59.902;10.520;2023-02-22T14:13:05;5.45;;;1.23;;
71387;SDS011;59201;59.902;10.520;2023-02-22T14:15:31;3.58;;;1.10;;
71387;SDS011;59201;59.902;10.520;2023-02-22T14:25:44;9.07;;;1.15;;
71387;SDS011;59201;59.902;10.520;2023-02-22T14:36:43;5.77;;;1.73;;
71387;SDS011;59201;59.902;10.520;2023-02-22T14:39:33;2.92;;;0.90;;
71387;SDS011;59201;59.902;10.520;2023-02-22T14:42:09;4.60;;;1.23;;
71387;SDS011;59201;59.902;10.520;2023-02-22T14:44:42;4.38;;;1.13;;
71387;SDS011;59201;59.902;10.520;2023-02-22T14:49:56;3.97;;;1.53;;
71387;SDS011;59201;59.902;10.520;2023-02-22T14:52:26;3.63;;;1.10;;
71387;SDS011;59201;59.902;10.520;2023-02-22T14:55:03;4.70;;;1.30;;
71387;SDS011;59201;59.902;10.520;2023-02-22T14:57:33;4.32;;;1.20;;
71387;SDS011;59201;59.902;10.520;2023-02-22T15:02:55;5.00;;;1.57;;
71387;SDS011;59201;59.902;10.520;2023-02-22T15:05:23;5.57;;;1.58;;
71387;SDS011;59201;59.902;10.520;2023-02-22T15:07:56;4.68;;;1.17;;
71387;SDS011;59201;59.902;10.520;2023-02-22T15:13:02;5.57;;;1.50;;
71387;SDS011;59201;59.902;10.520;2023-02-22T15:15:36;5.60;;;1.63;;
71387;SDS011;59201;59.902;10.520;2023-02-22T15:18:02;4.72;;;1.40;;
71387;SDS011;59201;59.902;10.520;2023-02-22T15:20:31;8.70;;;1.83;;
71387;SDS011;59201;59.902;10.520;2023-02-22T15:22:59;4.82;;;1.60;;
71387;SDS011;59201;59.902;10.520;2023-02-22T15:25:26;5.68;;;1.70;;
71387;SDS011;59201;59.902;10.520;2023-02-22T15:27:53;5.47;;;1.60;;
71387;SDS011;59201;59.902;10.520;2023-02-22T15:30:25;6.78;;;1.50;;
71387;SDS011;59201;59.902;10.520;2023-02-22T15:32:52;7.22;;;1.83;;
71387;SDS011;59201;59.902;10.520;2023-02-22T15:37:57;5.70;;;1.98;;
71387;SDS011;59201;59.902;10.520;2023-02-22T15:40:25;4.93;;;1.47;;
71387;SDS011;59201;59.902;10.520;2023-02-22T15:42:57;7.32;;;1.90;;
71387;SDS011;59201;59.902;10.520;2023-02-22T15:45:23;4.97;;;1.77;;
71387;SDS011;59201;59.902;10.520;2023-02-22T15:47:51;4.60;;;1.48;;
71387;SDS011;59201;59.902;10.520;2023-02-22T15:52:56;8.23;;;1.73;;
71387;SDS011;59201;59.902;10.520;2023-02-22T15:55:28;6.50;;;1.83;;
71387;SDS011;59201;59.902;10.520;2023-02-22T15:57:58;4.60;;;1.45;;
71387;SDS011;59201;59.902;10.520;2023-02-22T16:00:33;5.40;;;1.75;;
71387;SDS011;59201;59.902;10.520;2023-02-22T16:03:02;5.10;;;1.48;;
71387;SDS011;59201;59.902;10.520;2023-02-22T16:05:31;5.63;;;1.77;;
71387;SDS011;59201;59.902;10.520;2023-02-22T16:07:59;5.80;;;1.60;;
71387;SDS011;59201;59.902;10.520;2023-02-22T16:10:29;6.97;;;1.90;;
71387;SDS011;59201;59.902;10.520;2023-02-22T16:15:42;5.53;;;1.70;;
71387;SDS011;59201;59.902;10.520;2023-02-22T16:18:24;5.50;;;1.80;;
71387;SDS011;59201;59.902;10.520;2023-02-22T16:20:57;5.63;;;1.80;;
71387;SDS011;59201;59.902;10.520;2023-02-22T16:23:24;6.97;;;2.00;;
71387;SDS011;59201;59.902;10.520;2023-02-22T16:26:00;7.15;;;1.90;;
71387;SDS011;59201;59.902;10.520;2023-02-22T16:28:27;7.10;;;1.95;;
71387;SDS011;59201;59.902;10.520;2023-02-22T16:31:00;5.63;;;1.90;;
71387;SDS011;59201;59.902;10.520;2023-02-22T16:33:26;5.93;;;2.03;;
71387;SDS011;59201;59.902;10.520;2023-02-22T16:35:57;6.22;;;1.95;;
71387;SDS011;59201;59.902;10.520;2023-02-22T16:38:29;7.53;;;2.80;;
71387;SDS011;59201;59.902;10.520;2023-02-22T16:40:56;6.20;;;2.35;;
71387;SDS011;59201;59.902;10.520;2023-02-22T16:43:29;7.33;;;2.30;;
71387;SDS011;59201;59.902;10.520;2023-02-22T16:45:57;6.22;;;2.10;;
71387;SDS011;59201;59.902;10.520;2023-02-22T16:48:26;7.15;;;2.20;;
71387;SDS011;59201;59.902;10.520;2023-02-22T16:51:01;6.60;;;2.20;;
71387;SDS011;59201;59.902;10.520;2023-02-22T16:53:31;6.55;;;2.40;;
71387;SDS011;59201;59.902;10.520;2023-02-22T16:56:01;7.27;;;2.50;;
71387;SDS011;59201;59.902;10.520;2023-02-22T16:58:28;8.82;;;2.63;;
71387;SDS011;59201;59.902;10.520;2023-02-22T17:00:57;8.85;;;2.58;;
71387;SDS011;59201;59.902;10.520;2023-02-22T17:03:24;7.25;;;2.33;;
71387;SDS011;59201;59.902;10.520;2023-02-22T17:05:51;7.18;;;2.60;;
71387;SDS011;59201;59.902;10.520;2023-02-22T17:08:17;7.67;;;2.50;;
71387;SDS011;59201;59.902;10.520;2023-02-22T17:10:43;8.82;;;2.78;;
71387;SDS011;59201;59.902;10.520;2023-02-22T17:13:10;10.73;;;3.35;;
71387;SDS011;59201;59.902;10.520;2023-02-22T17:15:36;10.85;;;3.30;;
71387;SDS011;59201;59.902;10.520;2023-02-22T17:18:09;10.32;;;3.50;;
71387;SDS011;59201;59.902;10.520;2023-02-22T17:20:38;11.77;;;3.40;;
71387;SDS011;59201;59.902;10.520;2023-02-22T17:23:08;12.23;;;3.70;;
71387;SDS011;59201;59.902;10.520;2023-02-22T17:28:10;8.80;;;2.25;;
71387;SDS011;59201;59.902;10.520;2023-02-22T17:30:36;13.27;;;4.47;;
71387;SDS011;59201;59.902;10.520;2023-02-22T17:33:04;11.40;;;3.60;;
71387;SDS011;59201;59.902;10.520;2023-02-22T17:35:31;8.73;;;3.78;;
71387;SDS011;59201;59.902;10.520;2023-02-22T17:37:58;8.32;;;2.95;;
71387;SDS011;59201;59.902;10.520;2023-02-22T17:40:25;7.20;;;2.60;;